sensor_id;sensor_type;location;lat;lon;timestamp;P1;durP1;ratioP1;P2;durP2;ratioP2
31348;SDS011;17976;48.480;11.946;2023-02-23T09:07:31;36.70;;;20.48;;
31348;SDS011;17976;48.480;11.946;2023-02-23T09:09:57;41.35;;;20.42;;
31348;SDS011;17976;48.480;11.946;2023-02-23T09:12:23;40.47;;;20.02;;
31348;SDS011;17976;48.480;11.946;2023-02-23T09:14:49;41.75;;;19.77;;
31348;SDS011;17976;48.480;11.946;2023-02-23T09:17:17;39.05;;;20.20;;
31348;SDS011;17976;48.480;11.946;2023-02-23T09:19:44;41.47;;;20.77;;
31348;SDS011;17976;48.480;11.946;2023-02-23T09:22:09;37.33;;;20.17;;
31348;SDS011;17976;48.480;11.946;2023-02-23T09:24:36;40.10;;;20.33;;
31348;SDS011;17976;48.480;11.946;2023-02-23T09:27:02;37.45;;;20.13;;
31348;SDS011;17976;48.480;11.946;2023-02-23T09:29:28;37.72;;;20.10;;
31348;SDS011;17976;48.480;11.946;2023-02-23T09:31:54;38.03;;;21.15;;
31348;SDS011;17976;48.480;11.946;2023-02-23T09:34:22;34.67;;;19.08;;
31348;SDS011;17976;48.480;11.946;2023-02-23T09:36:47;38.28;;;18.80;;
31348;SDS011;17976;48.480;11.946;2023-02-23T09:39:13;34.90;;;20.40;;
31348;SDS011;17976;48.480;11.946;2023-02-23T09:49:36;36.55;;;19.55;;
31348;SDS011;17976;48.480;11.946;2023-02-23T09:52:03;31.98;;;18.65;;
31348;SDS011;17976;48.480;11.946;2023-02-23T09:54:31;35.00;;;18.20;;
31348;SDS011;17976;48.480;11.946;2023-02-23T09:56:59;38.42;;;18.88;;
31348;SDS011;17976;48.480;11.946;2023-02-23T09:59:27;38.28;;;19.50;;
31348;SDS011;17976;48.480;11.946;2023-02-23T10:02:02;36.65;;;18.80;;
31348;SDS011;17976;48.480;11.946;2023-02-23T10:04:52;39.60;;;19.27;;
31348;SDS011;17976;48.480;11.946;2023-02-23T10:09:59;41.97;;;20.40;;
31348;SDS011;17976;48.480;11.946;2023-02-23T10:12:49;35.00;;;19.80;;
31348;SDS011;17976;48.480;11.946;2023-02-23T10:18:15;38.60;;;19.48;;
31348;SDS011;17976;48.480;11.946;2023-02-23T10:20:49;36.65;;;19.35;;
31348;SDS011;17976;48.480;11.946;2023-02-23T10:23:25;38.50;;;19.52;;
31348;SDS011;17976;48.480;11.946;2023-02-23T10:25:53;39.95;;;18.77;;
31348;SDS011;17976;48.480;11.946;2023-02-23T10:28:23;34.50;;;19.33;;
31348;SDS011;17976;48.480;11.946;2023-02-23T10:30:50;37.58;;;20.60;;
31348;SDS011;17976;48.480;11.946;2023-02-23T10:33:25;39.22;;;19.50;;
31348;SDS011;17976;48.480;11.946;2023-02-23T10:35:57;35.33;;;19.65;;
31348;SDS011;17976;48.480;11.946;2023-02-23T10:38:24;31.00;;;18.98;;
31348;SDS011;17976;48.480;11.946;2023-02-23T10:40:52;40.80;;;19.85;;
31348;SDS011;17976;48.480;11.946;2023-02-23T10:43:19;42.67;;;20.13;;
31348;SDS011;17976;48.480;11.946;2023-02-23T10:45:46;36.97;;;19.48;;
31348;SDS011;17976;48.480;11.946;2023-02-23T10:50:42;36.75;;;19.23;;
31348;SDS011;17976;48.480;11.946;2023-02-23T10:55:42;36.05;;;18.65;;
31348;SDS011;17976;48.480;11.946;2023-02-23T10:58:18;46.38;;;19.40;;
31348;SDS011;17976;48.480;11.946;2023-02-23T11:03:19;37.28;;;18.15;;
31348;SDS011;17976;48.480;11.946;2023-02-23T11:05:48;36.30;;;18.40;;
31348;SDS011;17976;48.480;11.946;2023-02-23T11:16:00;34.45;;;19.45;;
31348;SDS011;17976;48.480;11.946;2023-02-23T11:18:27;32.67;;;18.05;;
31348;SDS011;17976;48.480;11.946;2023-02-23T11:20:53;34.33;;;18.52;;
31348;SDS011;17976;48.480;11.946;2023-02-23T11:23:24;35.75;;;18.58;;
31348;SDS011;17976;48.480;11.946;2023-02-23T11:25:53;32.10;;;17.97;;
31348;SDS011;17976;48.480;11.946;2023-02-23T11:28:35;31.13;;;16.30;;
31348;SDS011;17976;48.480;11.946;2023-02-23T11:31:11;34.97;;;16.35;;
31348;SDS011;17976;48.480;11.946;2023-02-23T11:33:38;33.35;;;16.98;;
31348;SDS011;17976;48.480;11.946;2023-02-23T11:41:34;31.38;;;16.88;;
31348;SDS011;17976;48.480;11.946;2023-02-23T11:44:01;28.92;;;17.10;;
31348;SDS011;17976;48.480;11.946;2023-02-23T11:46:28;29.17;;;15.95;;
31348;SDS011;17976;48.480;11.946;2023-02-23T11:51:31;34.13;;;17.95;;
31348;SDS011;17976;48.480;11.946;2023-02-23T11:53:57;30.77;;;16.75;;
31348;SDS011;17976;48.480;11.946;2023-02-23T11:56:24;32.03;;;18.10;;
31348;SDS011;17976;48.480;11.946;2023-02-23T11:58:55;34.83;;;17.85;;
31348;SDS011;17976;48.480;11.946;2023-02-23T12:01:33;34.47;;;17.67;;
31348;SDS011;17976;48.480;11.946;2023-02-23T12:04:00;32.45;;;17.02;;
31348;SDS011;17976;48.480;11.946;2023-02-23T12:06:28;33.33;;;17.48;;
31348;SDS011;17976;48.480;11.946;2023-02-23T12:08:56;31.48;;;17.27;;
31348;SDS011;17976;48.480;11.946;2023-02-23T12:11:26;29.98;;;17.80;;
31348;SDS011;17976;48.480;11.946;2023-02-23T12:13:58;33.42;;;17.42;;
31348;SDS011;17976;48.480;11.946;2023-02-23T12:16:41;30.42;;;16.77;;
31348;SDS011;17976;48.480;11.946;2023-02-23T12:21:44;26.90;;;15.05;;
31348;SDS011;17976;48.480;11.946;2023-02-23T12:26:42;27.15;;;14.38;;
31348;SDS011;17976;48.480;11.946;2023-02-23T12:29:24;29.27;;;15.30;;
31348;SDS011;17976;48.480;11.946;2023-02-23T12:31:57;31.58;;;14.65;;
31348;SDS011;17976;48.480;11.946;2023-02-23T12:34:31;28.13;;;14.55;;
31348;SDS011;17976;48.480;11.946;2023-02-23T12:37:09;27.30;;;14.40;;
31348;SDS011;17976;48.480;11.946;2023-02-23T12:39:37;26.98;;;14.65;;
31348;SDS011;17976;48.480;11.946;2023-02-23T12:42:15;29.08;;;13.55;;
31348;SDS011;17976;48.480;11.946;2023-02-23T12:44:49;29.33;;;15.02;;
31348;SDS011;17976;48.480;11.946;2023-02-23T12:49:48;26.52;;;14.43;;
31348;SDS011;17976;48.480;11.946;2023-02-23T12:52:19;25.67;;;14.35;;
31348;SDS011;17976;48.480;11.946;2023-02-23T12:54:47;29.33;;;14.65;;
31348;SDS011;17976;48.480;11.946;2023-02-23T13:03:02;22.70;;;13.07;;
31348;SDS011;17976;48.480;11.946;2023-02-23T13:05:56;28.30;;;14.43;;
31348;SDS011;17976;48.480;11.946;2023-02-23T13:08:24;26.42;;;13.82;;
31348;SDS011;17976;48.480;11.946;2023-02-23T13:15:57;22.90;;;13.32;;
31348;SDS011;17976;48.480;11.946;2023-02-23T13:18:29;26.45;;;13.32;;
31348;SDS011;17976;48.480;11.946;2023-02-23T13:21:01;25.00;;;13.20;;
31348;SDS011;17976;48.480;11.946;2023-02-23T13:23:32;22.58;;;13.30;;
31348;SDS011;17976;48.480;11.946;2023-02-23T13:31:34;20.75;;;13.05;;
31348;SDS011;17976;48.480;11.946;2023-02-23T13:34:01;21.73;;;13.18;;
31348;SDS011;17976;48.480;11.946;2023-02-23T13:36:28;21.92;;;12.85;;
31348;SDS011;17976;48.480;11.946;2023-02-23T13:41:45;22.17;;;11.55;;
31348;SDS011;17976;48.480;11.946;2023-02-23T13:44:25;22.27;;;11.00;;
31348;SDS011;17976;48.480;11.946;2023-02-23T13:47:01;21.50;;;10.48;;
31348;SDS011;17976;48.480;11.946;2023-02-23T13:49:50;16.88;;;8.55;;
31348;SDS011;17976;48.480;11.946;2023-02-23T13:52:22;20.33;;;9.85;;
31348;SDS011;17976;48.480;11.946;2023-02-23T13:54:52;18.08;;;9.02;;
31348;SDS011;17976;48.480;11.946;2023-02-23T13:57:21;13.73;;;8.73;;
31348;SDS011;17976;48.480;11.946;2023-02-23T13:59:47;13.50;;;8.43;;
31348;SDS011;17976;48.480;11.946;2023-02-23T14:02:19;13.95;;;8.35;;
31348;SDS011;17976;48.480;11.946;2023-02-23T14:07:17;16.40;;;8.82;;
31348;SDS011;17976;48.480;11.946;2023-02-23T14:09:52;18.38;;;9.18;;
31348;SDS011;17976;48.480;11.946;2023-02-23T14:12:22;17.85;;;9.05;;
31348;SDS011;17976;48.480;11.946;2023-02-23T14:14:48;14.55;;;8.38;;
31348;SDS011;17976;48.480;11.946;2023-02-23T14:22:29;13.68;;;8.15;;
31348;SDS011;17976;48.480;11.946;2023-02-23T14:27:43;12.00;;;7.50;;
31348;SDS011;17976;48.480;11.946;2023-02-23T14:32:39;11.90;;;7.47;;
31348;SDS011;17976;48.480;11.946;2023-02-23T14:35:07;12.45;;;7.93;;
31348;SDS011;17976;48.480;11.946;2023-02-23T14:37:48;11.35;;;7.28;;
31348;SDS011;17976;48.480;11.946;2023-02-23T14:40:23;17.27;;;8.32;;
31348;SDS011;17976;48.480;11.946;2023-02-23T14:42:51;13.90;;;7.82;;
31348;SDS011;17976;48.480;11.946;2023-02-23T14:45:18;11.05;;;6.60;;
31348;SDS011;17976;48.480;11.946;2023-02-23T14:47:50;12.73;;;7.85;;
31348;SDS011;17976;48.480;11.946;2023-02-23T14:50:21;13.10;;;8.05;;
31348;SDS011;17976;48.480;11.946;2023-02-23T14:52:49;15.57;;;8.23;;
31348;SDS011;17976;48.480;11.946;2023-02-23T14:55:26;14.32;;;7.80;;
31348;SDS011;17976;48.480;11.946;2023-02-23T14:57:52;13.88;;;7.65;;
31348;SDS011;17976;48.480;11.946;2023-02-23T15:00:20;13.70;;;8.38;;
31348;SDS011;17976;48.480;11.946;2023-02-23T15:02:53;15.02;;;8.10;;
31348;SDS011;17976;48.480;11.946;2023-02-23T15:05:20;13.43;;;7.95;;
31348;SDS011;17976;48.480;11.946;2023-02-23T15:07:47;15.32;;;8.70;;
31348;SDS011;17976;48.480;11.946;2023-02-23T15:12:41;16.52;;;9.27;;
31348;SDS011;17976;48.480;11.946;2023-02-23T15:15:11;14.75;;;8.05;;
31348;SDS011;17976;48.480;11.946;2023-02-23T15:17:41;15.95;;;8.80;;
31348;SDS011;17976;48.480;11.946;2023-02-23T15:20:11;13.88;;;7.65;;
31348;SDS011;17976;48.480;11.946;2023-02-23T15:22:38;15.02;;;8.00;;
31348;SDS011;17976;48.480;11.946;2023-02-23T15:25:11;17.77;;;7.95;;
31348;SDS011;17976;48.480;11.946;2023-02-23T15:27:39;14.70;;;7.93;;
31348;SDS011;17976;48.480;11.946;2023-02-23T15:32:47;20.25;;;8.85;;
31348;SDS011;17976;48.480;11.946;2023-02-23T15:35:13;16.20;;;8.65;;
31348;SDS011;17976;48.480;11.946;2023-02-23T15:37:46;12.10;;;7.45;;
31348;SDS011;17976;48.480;11.946;2023-02-23T15:40:13;12.00;;;6.77;;
31348;SDS011;17976;48.480;11.946;2023-02-23T15:42:42;12.48;;;7.53;;
31348;SDS011;17976;48.480;11.946;2023-02-23T15:47:44;13.15;;;7.40;;
31348;SDS011;17976;48.480;11.946;2023-02-23T15:52:43;13.07;;;7.68;;
31348;SDS011;17976;48.480;11.946;2023-02-23T15:55:11;15.55;;;7.68;;
31348;SDS011;17976;48.480;11.946;2023-02-23T15:57:43;12.75;;;7.20;;
31348;SDS011;17976;48.480;11.946;2023-02-23T16:00:19;12.82;;;7.28;;
31348;SDS011;17976;48.480;11.946;2023-02-23T16:02:56;12.07;;;6.53;;
31348;SDS011;17976;48.480;11.946;2023-02-23T16:05:22;13.23;;;6.95;;
31348;SDS011;17976;48.480;11.946;2023-02-23T16:08:00;16.27;;;8.18;;
31348;SDS011;17976;48.480;11.946;2023-02-23T16:10:30;14.07;;;7.85;;
31348;SDS011;17976;48.480;11.946;2023-02-23T16:12:58;11.55;;;7.30;;
31348;SDS011;17976;48.480;11.946;2023-02-23T16:15:28;13.48;;;8.13;;
31348;SDS011;17976;48.480;11.946;2023-02-23T16:17:58;14.80;;;7.47;;
31348;SDS011;17976;48.480;11.946;2023-02-23T16:20:30;12.38;;;7.25;;
31348;SDS011;17976;48.480;11.946;2023-02-23T16:22:58;13.27;;;7.32;;
31348;SDS011;17976;48.480;11.946;2023-02-23T16:25:27;18.65;;;7.35;;
31348;SDS011;17976;48.480;11.946;2023-02-23T16:27:55;13.48;;;7.53;;
31348;SDS011;17976;48.480;11.946;2023-02-23T16:33:29;13.55;;;7.00;;
31348;SDS011;17976;48.480;11.946;2023-02-23T16:41:05;20.27;;;8.98;;
31348;SDS011;17976;48.480;11.946;2023-02-23T16:46:01;18.00;;;8.40;;
31348;SDS011;17976;48.480;11.946;2023-02-23T16:48:27;18.23;;;8.70;;
31348;SDS011;17976;48.480;11.946;2023-02-23T16:50:53;15.25;;;8.15;;
31348;SDS011;17976;48.480;11.946;2023-02-23T16:53:19;16.15;;;9.02;;
31348;SDS011;17976;48.480;11.946;2023-02-23T16:55:54;18.20;;;8.77;;
31348;SDS011;17976;48.480;11.946;2023-02-23T16:58:25;12.05;;;7.72;;
31348;SDS011;17976;48.480;11.946;2023-02-23T17:00:54;24.02;;;8.73;;
31348;SDS011;17976;48.480;11.946;2023-02-23T17:03:24;20.52;;;9.00;;
31348;SDS011;17976;48.480;11.946;2023-02-23T17:05:50;17.23;;;7.80;;
31348;SDS011;17976;48.480;11.946;2023-02-23T17:08:17;17.88;;;7.95;;
31348;SDS011;17976;48.480;11.946;2023-02-23T17:10:44;14.40;;;7.25;;
31348;SDS011;17976;48.480;11.946;2023-02-23T17:13:20;14.38;;;7.85;;
31348;SDS011;17976;48.480;11.946;2023-02-23T17:15:47;22.00;;;8.68;;
31348;SDS011;17976;48.480;11.946;2023-02-23T17:18:19;18.15;;;8.52;;
31348;SDS011;17976;48.480;11.946;2023-02-23T17:20:47;15.77;;;8.63;;
31348;SDS011;17976;48.480;11.946;2023-02-23T17:23:13;16.02;;;9.15;;
31348;SDS011;17976;48.480;11.946;2023-02-23T17:25:39;14.20;;;8.75;;
31348;SDS011;17976;48.480;11.946;2023-02-23T17:28:05;16.13;;;9.07;;
31348;SDS011;17976;48.480;11.946;2023-02-23T17:30:31;15.77;;;8.77;;
31348;SDS011;17976;48.480;11.946;2023-02-23T17:32:57;15.98;;;9.23;;
31348;SDS011;17976;48.480;11.946;2023-02-23T17:35:24;13.73;;;8.70;;
31348;SDS011;17976;48.480;11.946;2023-02-23T17:37:50;19.05;;;9.63;;
31348;SDS011;17976;48.480;11.946;2023-02-23T17:40:21;20.25;;;9.43;;
31348;SDS011;17976;48.480;11.946;2023-02-23T17:42:51;20.67;;;10.02;;
31348;SDS011;17976;48.480;11.946;2023-02-23T17:45:17;23.05;;;10.65;;
31348;SDS011;17976;48.480;11.946;2023-02-23T17:47:43;23.48;;;10.77;;
31348;SDS011;17976;48.480;11.946;2023-02-23T17:50:10;16.15;;;9.63;;
31348;SDS011;17976;48.480;11.946;2023-02-23T17:52:36;19.90;;;9.13;;
31348;SDS011;17976;48.480;11.946;2023-02-23T17:55:02;18.83;;;9.13;;
31348;SDS011;17976;48.480;11.946;2023-02-23T17:57:28;16.98;;;9.43;;
31348;SDS011;17976;48.480;11.946;2023-02-23T17:59:55;14.25;;;8.20;;
31348;SDS011;17976;48.480;11.946;2023-02-23T18:02:21;20.35;;;8.88;;
31348;SDS011;17976;48.480;11.946;2023-02-23T18:04:47;15.85;;;9.27;;
31348;SDS011;17976;48.480;11.946;2023-02-23T18:07:14;14.02;;;7.97;;
31348;SDS011;17976;48.480;11.946;2023-02-23T18:09:40;20.63;;;8.52;;
31348;SDS011;17976;48.480;11.946;2023-02-23T18:12:06;16.23;;;9.07;;
31348;SDS011;17976;48.480;11.946;2023-02-23T18:14:32;17.17;;;9.20;;
31348;SDS011;17976;48.480;11.946;2023-02-23T18:16:58;18.38;;;9.05;;
31348;SDS011;17976;48.480;11.946;2023-02-23T18:19:25;17.75;;;9.02;;
31348;SDS011;17976;48.480;11.946;2023-02-23T18:21:52;21.92;;;9.63;;
31348;SDS011;17976;48.480;11.946;2023-02-23T18:24:21;18.98;;;9.18;;
31348;SDS011;17976;48.480;11.946;2023-02-23T18:26:47;21.98;;;9.20;;
31348;SDS011;17976;48.480;11.946;2023-02-23T18:29:13;18.48;;;9.85;;
31348;SDS011;17976;48.480;11.946;2023-02-23T18:31:39;14.40;;;9.15;;
31348;SDS011;17976;48.480;11.946;2023-02-23T18:34:05;19.08;;;11.00;;
31348;SDS011;17976;48.480;11.946;2023-02-23T18:36:32;19.63;;;11.30;;
31348;SDS011;17976;48.480;11.946;2023-02-23T18:39:03;21.65;;;10.32;;
31348;SDS011;17976;48.480;11.946;2023-02-23T18:41:29;22.58;;;10.73;;
31348;SDS011;17976;48.480;11.946;2023-02-23T18:43:56;23.45;;;11.18;;
31348;SDS011;17976;48.480;11.946;2023-02-23T18:46:22;19.08;;;10.10;;
31348;SDS011;17976;48.480;11.946;2023-02-23T18:48:48;19.98;;;10.90;;
31348;SDS011;17976;48.480;11.946;2023-02-23T18:51:15;21.42;;;10.35;;
31348;SDS011;17976;48.480;11.946;2023-02-23T18:53:41;21.50;;;10.73;;
31348;SDS011;17976;48.480;11.946;2023-02-23T18:56:10;19.63;;;11.25;;
31348;SDS011;17976;48.480;11.946;2023-02-23T18:58:37;25.40;;;11.05;;
31348;SDS011;17976;48.480;11.946;2023-02-23T19:01:10;22.65;;;10.70;;
31348;SDS011;17976;48.480;11.946;2023-02-23T19:03:36;20.23;;;11.10;;
31348;SDS011;17976;48.480;11.946;2023-02-23T19:06:05;23.48;;;10.80;;
31348;SDS011;17976;48.480;11.946;2023-02-23T19:08:32;29.23;;;11.40;;
31348;SDS011;17976;48.480;11.946;2023-02-23T19:10:58;19.70;;;10.18;;
31348;SDS011;17976;48.480;11.946;2023-02-23T19:13:24;18.92;;;9.70;;
31348;SDS011;17976;48.480;11.946;2023-02-23T19:15:50;24.70;;;10.68;;
31348;SDS011;17976;48.480;11.946;2023-02-23T19:18:17;17.17;;;9.98;;
31348;SDS011;17976;48.480;11.946;2023-02-23T19:20:43;18.73;;;10.38;;
31348;SDS011;17976;48.480;11.946;2023-02-23T19:23:09;25.10;;;12.02;;
31348;SDS011;17976;48.480;11.946;2023-02-23T19:25:37;19.48;;;10.98;;
31348;SDS011;17976;48.480;11.946;2023-02-23T19:28:03;24.05;;;10.80;;
31348;SDS011;17976;48.480;11.946;2023-02-23T19:30:29;23.80;;;11.77;;
31348;SDS011;17976;48.480;11.946;2023-02-23T19:32:55;24.70;;;12.90;;
31348;SDS011;17976;48.480;11.946;2023-02-23T19:35:21;31.20;;;13.45;;
31348;SDS011;17976;48.480;11.946;2023-02-23T19:37:48;27.95;;;14.43;;
31348;SDS011;17976;48.480;11.946;2023-02-23T19:40:15;28.45;;;14.70;;
31348;SDS011;17976;48.480;11.946;2023-02-23T19:42:43;30.15;;;14.40;;
31348;SDS011;17976;48.480;11.946;2023-02-23T19:45:13;25.63;;;14.23;;
31348;SDS011;17976;48.480;11.946;2023-02-23T19:47:39;30.15;;;13.77;;
31348;SDS011;17976;48.480;11.946;2023-02-23T19:50:09;24.17;;;13.23;;
31348;SDS011;17976;48.480;11.946;2023-02-23T19:52:36;30.00;;;14.52;;
31348;SDS011;17976;48.480;11.946;2023-02-23T19:55:05;27.63;;;14.90;;
31348;SDS011;17976;48.480;11.946;2023-02-23T19:57:31;30.58;;;14.35;;
31348;SDS011;17976;48.480;11.946;2023-02-23T19:59:58;25.13;;;12.85;;
31348;SDS011;17976;48.480;11.946;2023-02-23T20:02:23;27.38;;;13.43;;
31348;SDS011;17976;48.480;11.946;2023-02-23T20:04:49;30.55;;;15.70;;
31348;SDS011;17976;48.480;11.946;2023-02-23T20:07:16;29.70;;;15.35;;
31348;SDS011;17976;48.480;11.946;2023-02-23T20:09:42;25.05;;;13.82;;
31348;SDS011;17976;48.480;11.946;2023-02-23T20:12:08;29.70;;;14.30;;
31348;SDS011;17976;48.480;11.946;2023-02-23T20:14:34;27.83;;;13.32;;
31348;SDS011;17976;48.480;11.946;2023-02-23T20:17:01;28.90;;;13.98;;
31348;SDS011;17976;48.480;11.946;2023-02-23T20:19:27;29.00;;;14.88;;
31348;SDS011;17976;48.480;11.946;2023-02-23T20:21:53;28.17;;;15.15;;
31348;SDS011;17976;48.480;11.946;2023-02-23T20:24:19;34.60;;;14.80;;
31348;SDS011;17976;48.480;11.946;2023-02-23T20:26:45;35.13;;;15.32;;
31348;SDS011;17976;48.480;11.946;2023-02-23T20:29:12;28.48;;;15.38;;
31348;SDS011;17976;48.480;11.946;2023-02-23T20:31:42;26.50;;;15.15;;
31348;SDS011;17976;48.480;11.946;2023-02-23T20:34:09;26.45;;;14.20;;
31348;SDS011;17976;48.480;11.946;2023-02-23T20:36:36;31.35;;;15.73;;
31348;SDS011;17976;48.480;11.946;2023-02-23T20:39:03;29.23;;;15.20;;
31348;SDS011;17976;48.480;11.946;2023-02-23T20:41:29;30.15;;;16.00;;
31348;SDS011;17976;48.480;11.946;2023-02-23T20:43:55;33.72;;;15.73;;
31348;SDS011;17976;48.480;11.946;2023-02-23T20:46:24;35.60;;;16.63;;
31348;SDS011;17976;48.480;11.946;2023-02-23T20:48:52;31.08;;;16.48;;
31348;SDS011;17976;48.480;11.946;2023-02-23T20:51:18;28.70;;;15.80;;
31348;SDS011;17976;48.480;11.946;2023-02-23T20:53:45;29.73;;;15.52;;
31348;SDS011;17976;48.480;11.946;2023-02-23T20:56:12;36.20;;;16.27;;
31348;SDS011;17976;48.480;11.946;2023-02-23T20:58:39;27.30;;;15.30;;
